Time;durP1;ratioP1;P1;durP2;ratioP2;P2;SDS_P1;SDS_P2;PMS_P1;PMS_P2;Temp;Humidity;BMP_temperature;BMP_pressure;BME280_temperature;BME280_humidity;BME280_pressure;Samples;Min_cycle;Max_cycle;Signal;HPM_P1;HPM_P2
2023/04/19 00:00:40;;;;;;;46.50;23.70;;;;;;;;;;5112485;28;20066;-63
2023/04/19 00:03:06;;;;;;;49.75;23.27;;;;;;;;;;5112536;28;20039;-61
2023/04/19 00:05:32;;;;;;;47.78;24.55;;;;;;;;;;5112128;28;20481;-62
2023/04/19 00:07:58;;;;;;;47.15;23.70;;;;;;;;;;5112160;28;20525;-63
2023/04/19 00:10:25;;;;;;;51.92;25.23;;;;;;;;;;5111886;28;20028;-63
2023/04/19 00:12:51;;;;;;;46.58;22.73;;;;;;;;;;5112213;28;20039;-64
2023/04/19 00:15:17;;;;;;;50.05;24.60;;;;;;;;;;5112152;28;20438;-63
2023/04/19 00:17:43;;;;;;;47.90;23.42;;;;;;;;;;5112116;28;20087;-63
2023/04/19 00:20:13;;;;;;;48.42;23.45;;;;;;;;;;5112167;28;20129;-63
2023/04/19 00:22:39;;;;;;;59.42;25.33;;;;;;;;;;5111792;28;20067;-63
2023/04/19 00:25:06;;;;;;;58.92;25.33;;;;;;;;;;5112092;28;20015;-62
2023/04/19 00:27:32;;;;;;;56.70;24.55;;;;;;;;;;5111932;28;20513;-62
2023/04/19 00:29:58;;;;;;;50.42;24.20;;;;;;;;;;5112098;28;20055;-63
2023/04/19 00:32:24;;;;;;;52.28;24.25;;;;;;;;;;5111967;28;20543;-63
2023/04/19 00:34:50;;;;;;;54.95;24.60;;;;;;;;;;5111893;28;20015;-62
2023/04/19 00:37:16;;;;;;;51.03;24.88;;;;;;;;;;5112081;28;20031;-61
2023/04/19 00:39:42;;;;;;;55.60;24.58;;;;;;;;;;5111794;28;20041;-63
2023/04/19 00:42:09;;;;;;;51.20;25.90;;;;;;;;;;5111749;28;20124;-63
2023/04/19 00:44:35;;;;;;;51.67;25.48;;;;;;;;;;5111775;28;20019;-62
2023/04/19 00:47:01;;;;;;;52.47;25.27;;;;;;;;;;5111573;28;20047;-61
2023/04/19 00:49:27;;;;;;;50.08;24.52;;;;;;;;;;5111381;28;20051;-62
2023/04/19 00:51:53;;;;;;;55.33;25.15;;;;;;;;;;5111774;28;20032;-63
2023/04/19 00:54:20;;;;;;;52.60;25.92;;;;;;;;;;5111594;28;20020;-62
2023/04/19 00:56:46;;;;;;;53.05;24.90;;;;;;;;;;5111584;28;20028;-63
2023/04/19 00:59:14;;;;;;;51.50;24.77;;;;;;;;;;5111764;28;20547;-62
2023/04/19 01:01:40;;;;;;;53.45;25.73;;;;;;;;;;5110233;28;20495;-62
2023/04/19 01:04:06;;;;;;;57.13;26.65;;;;;;;;;;5111770;28;20031;-63
2023/04/19 01:06:33;;;;;;;52.90;24.48;;;;;;;;;;5111355;28;20543;-63
2023/04/19 01:08:59;;;;;;;54.50;25.08;;;;;;;;;;5111433;28;20076;-63
2023/04/19 01:11:26;;;;;;;61.60;26.02;;;;;;;;;;5111326;28;20020;-63
2023/04/19 01:13:52;;;;;;;54.58;27.77;;;;;;;;;;5111374;28;20030;-63
2023/04/19 01:16:18;;;;;;;56.67;25.35;;;;;;;;;;5111393;28;20016;-62
2023/04/19 01:18:44;;;;;;;58.05;26.60;;;;;;;;;;5111252;28;20028;-62
2023/04/19 01:21:11;;;;;;;54.92;26.38;;;;;;;;;;5111389;28;20019;-62
2023/04/19 01:23:40;;;;;;;54.42;26.85;;;;;;;;;;5111166;28;20110;-63
2023/04/19 01:26:06;;;;;;;57.88;27.05;;;;;;;;;;5111382;28;20042;-64
2023/04/19 01:28:32;;;;;;;56.47;27.45;;;;;;;;;;5111405;28;20038;-63
2023/04/19 01:30:58;;;;;;;54.00;26.40;;;;;;;;;;5111399;28;20012;-62
2023/04/19 01:33:24;;;;;;;58.72;26.58;;;;;;;;;;5111188;28;20108;-63
2023/04/19 01:35:50;;;;;;;54.47;24.63;;;;;;;;;;5111166;28;20027;-62
2023/04/19 01:38:17;;;;;;;53.05;26.63;;;;;;;;;;5111084;28;20023;-62
2023/04/19 01:40:43;;;;;;;56.05;25.15;;;;;;;;;;5111098;28;20053;-63
2023/04/19 01:43:12;;;;;;;51.97;26.38;;;;;;;;;;5111060;28;20056;-63
2023/04/19 01:45:38;;;;;;;56.10;27.65;;;;;;;;;;5110972;28;20024;-62
2023/04/19 01:48:04;;;;;;;52.70;25.95;;;;;;;;;;5111148;28;20032;-63
2023/04/19 01:50:30;;;;;;;57.08;26.88;;;;;;;;;;5111208;28;20015;-62
2023/04/19 01:52:57;;;;;;;53.72;27.20;;;;;;;;;;5110879;28;20069;-63
2023/04/19 01:55:23;;;;;;;53.78;26.23;;;;;;;;;;5111143;28;20027;-63
2023/04/19 01:57:51;;;;;;;52.10;25.50;;;;;;;;;;5111119;28;20027;-62
2023/04/19 02:00:17;;;;;;;57.75;25.80;;;;;;;;;;5110916;28;20031;-63
2023/04/19 02:02:44;;;;;;;51.40;26.02;;;;;;;;;;5113579;28;20046;-62
2023/04/19 02:05:10;;;;;;;53.30;26.05;;;;;;;;;;5114816;28;20020;-63
2023/04/19 02:07:36;;;;;;;52.78;26.92;;;;;;;;;;5114729;28;20031;-63
2023/04/19 02:10:03;;;;;;;55.17;26.67;;;;;;;;;;5114439;28;20024;-62
2023/04/19 02:12:32;;;;;;;54.20;25.23;;;;;;;;;;5114485;28;20034;-62
2023/04/19 02:14:58;;;;;;;52.33;25.95;;;;;;;;;;5114648;28;20012;-63
2023/04/19 02:17:25;;;;;;;53.53;25.67;;;;;;;;;;5114414;28;20512;-62
2023/04/19 02:19:51;;;;;;;59.15;26.80;;;;;;;;;;5114384;28;20031;-62
2023/04/19 02:22:20;;;;;;;56.30;26.98;;;;;;;;;;5114362;28;20071;-62
2023/04/19 02:24:47;;;;;;;53.38;25.67;;;;;;;;;;5114189;28;20044;-63
2023/04/19 02:27:13;;;;;;;55.15;27.73;;;;;;;;;;5114333;28;20102;-62
2023/04/19 02:29:39;;;;;;;53.20;26.42;;;;;;;;;;5114120;28;20015;-62
2023/04/19 02:32:05;;;;;;;53.15;26.35;;;;;;;;;;5114187;28;20020;-63
2023/04/19 02:34:32;;;;;;;54.80;27.27;;;;;;;;;;5113958;28;20031;-62
2023/04/19 02:36:58;;;;;;;52.97;25.35;;;;;;;;;;5113975;28;20036;-63
2023/04/19 02:39:24;;;;;;;54.20;26.10;;;;;;;;;;5114205;28;20042;-63
2023/04/19 02:41:50;;;;;;;54.08;25.35;;;;;;;;;;5113963;28;20035;-62
2023/04/19 02:44:16;;;;;;;53.08;25.95;;;;;;;;;;5114028;28;20062;-63
2023/04/19 02:46:48;;;;;;;64.35;27.70;;;;;;;;;;5113811;28;20071;-62
2023/04/19 02:49:14;;;;;;;56.72;26.83;;;;;;;;;;5113532;28;20368;-62
2023/04/19 02:51:40;;;;;;;54.05;26.42;;;;;;;;;;5113820;28;20141;-62
2023/04/19 02:54:06;;;;;;;53.00;26.02;;;;;;;;;;5113963;28;20106;-62
2023/04/19 02:56:32;;;;;;;53.78;25.77;;;;;;;;;;5113687;28;20535;-62
2023/04/19 02:59:01;;;;;;;54.25;26.30;;;;;;;;;;5113394;28;20036;-62
2023/04/19 03:01:27;;;;;;;54.33;25.98;;;;;;;;;;5112393;28;20136;-61
2023/04/19 03:03:53;;;;;;;52.53;26.10;;;;;;;;;;5113005;28;20056;-62
2023/04/19 03:06:19;;;;;;;56.58;27.25;;;;;;;;;;5113677;28;20023;-61
2023/04/19 03:08:45;;;;;;;54.33;27.50;;;;;;;;;;5112545;28;20073;-64
2023/04/19 03:11:12;;;;;;;54.38;26.65;;;;;;;;;;5113266;28;20028;-62
2023/04/19 03:13:39;;;;;;;58.53;27.60;;;;;;;;;;5113314;28;20043;-62
2023/04/19 03:16:06;;;;;;;52.67;26.88;;;;;;;;;;5113056;28;20041;-61
2023/04/19 03:18:32;;;;;;;52.88;26.73;;;;;;;;;;5113152;28;20177;-61
2023/04/19 03:20:58;;;;;;;53.75;26.38;;;;;;;;;;5113043;28;20019;-62
2023/04/19 03:23:25;;;;;;;55.38;27.40;;;;;;;;;;5112815;28;20077;-62
2023/04/19 03:25:51;;;;;;;50.92;26.35;;;;;;;;;;5112990;28;20050;-62
2023/04/19 03:28:17;;;;;;;57.35;27.40;;;;;;;;;;5112890;28;20031;-62
2023/04/19 03:30:44;;;;;;;52.90;26.67;;;;;;;;;;5112729;28;20046;-62
2023/04/19 03:33:10;;;;;;;58.80;26.77;;;;;;;;;;5112916;28;20027;-62
2023/04/19 03:35:36;;;;;;;54.42;26.13;;;;;;;;;;5112702;28;20020;-63
2023/04/19 03:38:02;;;;;;;54.55;27.08;;;;;;;;;;5112742;28;20527;-61
2023/04/19 03:40:28;;;;;;;53.75;26.95;;;;;;;;;;5113065;28;20080;-62
2023/04/19 03:42:54;;;;;;;54.53;26.90;;;;;;;;;;5112704;28;20031;-62
2023/04/19 03:45:21;;;;;;;56.38;27.83;;;;;;;;;;5112457;28;20609;-62
2023/04/19 03:47:47;;;;;;;53.20;26.67;;;;;;;;;;5112510;28;20131;-62
2023/04/19 03:50:13;;;;;;;50.58;27.70;;;;;;;;;;5112347;28;20023;-62
2023/04/19 03:52:39;;;;;;;57.33;27.15;;;;;;;;;;5112623;28;20185;-62
2023/04/19 03:55:05;;;;;;;52.35;25.75;;;;;;;;;;5112547;28;20112;-63
2023/04/19 03:57:31;;;;;;;58.38;28.13;;;;;;;;;;5112455;28;20020;-62
2023/04/19 03:59:57;;;;;;;63.28;28.02;;;;;;;;;;5112207;28;20392;-62
2023/04/19 04:02:24;;;;;;;51.10;26.27;;;;;;;;;;5112205;28;20027;-63
2023/04/19 04:04:53;;;;;;;52.55;27.25;;;;;;;;;;5112715;28;20039;-63
2023/04/19 04:07:20;;;;;;;60.47;28.17;;;;;;;;;;5112372;28;20510;-62
2023/04/19 04:09:47;;;;;;;57.35;26.98;;;;;;;;;;5112360;28;20032;-61
2023/04/19 04:12:13;;;;;;;57.90;27.00;;;;;;;;;;5112347;28;20030;-62
2023/04/19 04:14:39;;;;;;;58.20;28.95;;;;;;;;;;5111949;28;20028;-64
2023/04/19 04:17:05;;;;;;;66.82;27.33;;;;;;;;;;5112095;28;20035;-62
2023/04/19 04:19:31;;;;;;;52.35;26.35;;;;;;;;;;5111801;28;20016;-62
2023/04/19 04:21:57;;;;;;;55.47;27.00;;;;;;;;;;5111803;28;20054;-62
2023/04/19 04:24:23;;;;;;;51.50;26.52;;;;;;;;;;5111625;28;20035;-61
2023/04/19 04:26:50;;;;;;;54.97;26.92;;;;;;;;;;5112025;28;20049;-63
2023/04/19 04:29:16;;;;;;;57.13;27.60;;;;;;;;;;5111841;28;20036;-62
2023/04/19 04:31:42;;;;;;;54.45;25.92;;;;;;;;;;5111917;28;20024;-62
2023/04/19 04:34:09;;;;;;;58.28;27.95;;;;;;;;;;5111834;28;20027;-62
2023/04/19 04:36:38;;;;;;;58.85;28.45;;;;;;;;;;5112103;28;20019;-61
2023/04/19 04:39:05;;;;;;;58.38;28.75;;;;;;;;;;5111824;28;20078;-62
2023/04/19 04:41:31;;;;;;;55.13;27.17;;;;;;;;;;5111595;28;20019;-62
2023/04/19 04:43:59;;;;;;;52.20;26.48;;;;;;;;;;5111691;28;20116;-61
2023/04/19 04:46:25;;;;;;;55.97;27.17;;;;;;;;;;5111283;28;20044;-62
2023/04/19 04:48:51;;;;;;;57.92;27.83;;;;;;;;;;5111672;28;20024;-62
2023/04/19 04:51:18;;;;;;;49.78;26.67;;;;;;;;;;5111526;28;20019;-62
2023/04/19 04:53:44;;;;;;;62.75;29.52;;;;;;;;;;5111603;28;20055;-63
2023/04/19 04:56:10;;;;;;;64.68;28.52;;;;;;;;;;5111566;28;20034;-62
2023/04/19 04:58:36;;;;;;;52.58;26.15;;;;;;;;;;5111663;28;20020;-63
2023/04/19 05:01:02;;;;;;;51.95;26.85;;;;;;;;;;5111617;28;20050;-63
2023/04/19 05:03:28;;;;;;;52.20;27.02;;;;;;;;;;5111235;28;20043;-62
2023/04/19 05:05:55;;;;;;;52.83;26.52;;;;;;;;;;5111430;28;20028;-62
2023/04/19 05:08:21;;;;;;;53.95;26.52;;;;;;;;;;5111765;28;20379;-63
2023/04/19 05:10:47;;;;;;;55.80;26.73;;;;;;;;;;5111207;28;20376;-62
2023/04/19 05:13:13;;;;;;;55.10;27.08;;;;;;;;;;5111662;28;20020;-62
2023/04/19 05:15:39;;;;;;;49.33;25.90;;;;;;;;;;5111261;28;20463;-63
2023/04/19 05:18:05;;;;;;;56.60;27.05;;;;;;;;;;5110033;28;20475;-63
2023/04/19 05:20:32;;;;;;;56.85;27.10;;;;;;;;;;5111236;28;20031;-62
2023/04/19 05:22:59;;;;;;;51.83;25.17;;;;;;;;;;5109838;28;20031;-64
2023/04/19 05:25:25;;;;;;;52.70;26.33;;;;;;;;;;5111575;28;20030;-63
2023/04/19 05:27:52;;;;;;;48.92;24.77;;;;;;;;;;5111287;28;20027;-63
2023/04/19 05:30:18;;;;;;;52.00;25.73;;;;;;;;;;5111156;28;20103;-64
2023/04/19 05:32:44;;;;;;;49.80;25.17;;;;;;;;;;5111419;28;20424;-64
2023/04/19 05:35:10;;;;;;;50.05;25.02;;;;;;;;;;5111381;28;20020;-64
2023/04/19 05:37:37;;;;;;;54.10;26.45;;;;;;;;;;5113826;28;20023;-63
2023/04/19 05:40:08;;;;;;;57.40;26.27;;;;;;;;;;5115114;28;20031;-63
2023/04/19 05:42:35;;;;;;;50.40;25.55;;;;;;;;;;5115057;28;20042;-63
2023/04/19 05:45:01;;;;;;;51.13;24.10;;;;;;;;;;5115303;28;20030;-63
2023/04/19 05:47:27;;;;;;;47.75;24.98;;;;;;;;;;5115051;28;20547;-63
2023/04/19 05:49:53;;;;;;;49.85;26.02;;;;;;;;;;5115004;28;20098;-64
2023/04/19 05:52:19;;;;;;;46.13;24.75;;;;;;;;;;5114948;28;20024;-63
2023/04/19 05:54:45;;;;;;;47.78;24.70;;;;;;;;;;5115214;28;20077;-65
2023/04/19 05:57:11;;;;;;;45.58;24.83;;;;;;;;;;5114820;28;20542;-64
2023/04/19 05:59:37;;;;;;;46.83;24.58;;;;;;;;;;5114860;28;20012;-63
2023/04/19 06:02:04;;;;;;;44.55;23.73;;;;;;;;;;5113396;28;20063;-64
2023/04/19 06:04:30;;;;;;;51.55;24.02;;;;;;;;;;5112479;28;20059;-64
2023/04/19 06:06:56;;;;;;;44.53;23.65;;;;;;;;;;5114210;28;20058;-63
2023/04/19 06:09:22;;;;;;;46.88;23.50;;;;;;;;;;5114825;28;20028;-65
2023/04/19 06:11:49;;;;;;;41.13;22.63;;;;;;;;;;5114543;27;20519;-65
2023/04/19 06:14:15;;;;;;;47.05;23.25;;;;;;;;;;5114621;28;20535;-64
2023/04/19 06:16:41;;;;;;;48.92;23.42;;;;;;;;;;5114547;28;20107;-64
2023/04/19 06:19:07;;;;;;;46.28;23.42;;;;;;;;;;5114162;28;20028;-64
2023/04/19 06:21:33;;;;;;;46.35;23.60;;;;;;;;;;5114551;28;20023;-65
2023/04/19 06:24:00;;;;;;;46.28;22.73;;;;;;;;;;5114240;28;20480;-64
2023/04/19 06:26:26;;;;;;;49.22;23.15;;;;;;;;;;5114298;28;20027;-63
2023/04/19 06:28:52;;;;;;;40.70;22.67;;;;;;;;;;5114317;28;20024;-63
2023/04/19 06:31:18;;;;;;;40.97;22.48;;;;;;;;;;5114176;28;20016;-63
2023/04/19 06:33:44;;;;;;;42.30;21.73;;;;;;;;;;5114258;28;20019;-64
2023/04/19 06:36:11;;;;;;;40.38;22.33;;;;;;;;;;5113984;28;20028;-64
2023/04/19 06:38:46;;;;;;;41.53;22.63;;;;;;;;;;5112904;28;20062;-63
2023/04/19 06:41:12;;;;;;;39.88;22.20;;;;;;;;;;5114190;28;20034;-64
2023/04/19 06:43:39;;;;;;;44.15;22.13;;;;;;;;;;5113947;28;20043;-63
2023/04/19 06:46:05;;;;;;;45.38;21.02;;;;;;;;;;5113868;28;20114;-64
2023/04/19 06:48:32;;;;;;;45.55;22.35;;;;;;;;;;5113133;28;20047;-63
2023/04/19 06:50:58;;;;;;;43.40;22.85;;;;;;;;;;5113827;28;20016;-64
2023/04/19 06:53:26;;;;;;;40.97;21.73;;;;;;;;;;5113796;28;20030;-63
2023/04/19 06:55:59;;;;;;;39.00;21.00;;;;;;;;;;5113797;28;20027;-63
2023/04/19 06:58:25;;;;;;;42.50;22.50;;;;;;;;;;5113921;28;20027;-63
2023/04/19 07:00:52;;;;;;;45.03;23.23;;;;;;;;;;5113724;28;20379;-65
2023/04/19 07:03:18;;;;;;;38.22;21.65;;;;;;;;;;5113570;28;20036;-64
2023/04/19 07:05:44;;;;;;;37.20;20.45;;;;;;;;;;5113544;28;20110;-64
2023/04/19 07:08:10;;;;;;;40.00;21.77;;;;;;;;;;5113463;28;20476;-66
2023/04/19 07:10:36;;;;;;;39.90;20.98;;;;;;;;;;5113453;28;20095;-64
2023/04/19 07:13:02;;;;;;;36.92;21.25;;;;;;;;;;5113506;28;20071;-64
2023/04/19 07:15:28;;;;;;;39.72;20.40;;;;;;;;;;5113478;28;20047;-64
2023/04/19 07:17:54;;;;;;;37.25;19.70;;;;;;;;;;5112179;28;20031;-65
2023/04/19 07:20:20;;;;;;;36.63;19.45;;;;;;;;;;5113155;28;20077;-63
2023/04/19 07:22:46;;;;;;;40.13;20.27;;;;;;;;;;5113385;28;20061;-64
2023/04/19 07:25:14;;;;;;;41.28;21.08;;;;;;;;;;5113316;28;20076;-63
2023/04/19 07:27:40;;;;;;;34.50;20.65;;;;;;;;;;5113124;28;20023;-64
2023/04/19 07:30:06;;;;;;;38.50;20.95;;;;;;;;;;5112983;28;20023;-64
2023/04/19 07:32:32;;;;;;;37.50;19.95;;;;;;;;;;5113095;27;20030;-64
2023/04/19 07:34:58;;;;;;;37.03;20.88;;;;;;;;;;5113296;28;20020;-63
2023/04/19 07:37:24;;;;;;;35.65;20.83;;;;;;;;;;5112907;27;20028;-64
2023/04/19 07:39:50;;;;;;;39.05;20.92;;;;;;;;;;5112970;28;20012;-64
2023/04/19 07:42:16;;;;;;;35.05;20.98;;;;;;;;;;5112750;28;20049;-63
2023/04/19 07:44:42;;;;;;;33.35;19.15;;;;;;;;;;5112785;28;20024;-64
2023/04/19 07:47:08;;;;;;;35.50;20.10;;;;;;;;;;5112642;28;20047;-64
2023/04/19 07:49:35;;;;;;;39.90;20.15;;;;;;;;;;5112631;28;20036;-64
2023/04/19 07:52:01;;;;;;;37.90;21.38;;;;;;;;;;5112748;28;20027;-64
2023/04/19 07:54:30;;;;;;;37.22;19.98;;;;;;;;;;5112653;28;20071;-65
2023/04/19 07:56:57;;;;;;;34.33;19.33;;;;;;;;;;5112542;28;20629;-64
2023/04/19 07:59:23;;;;;;;33.10;17.50;;;;;;;;;;5111582;28;20049;-64
2023/04/19 08:01:50;;;;;;;32.22;18.10;;;;;;;;;;5112271;28;20102;-65
2023/04/19 08:04:18;;;;;;;34.95;18.20;;;;;;;;;;5112353;28;20096;-65
2023/04/19 08:06:44;;;;;;;32.90;19.08;;;;;;;;;;5112404;28;20023;-65
2023/04/19 08:09:10;;;;;;;28.55;16.08;;;;;;;;;;5112433;28;20019;-64
2023/04/19 08:11:36;;;;;;;26.90;16.20;;;;;;;;;;5112230;28;20039;-63
2023/04/19 08:14:02;;;;;;;26.75;14.95;;;;;;;;;;5112285;28;20024;-63
2023/04/19 08:16:28;;;;;;;23.42;14.07;;;;;;;;;;5112086;28;20540;-63
2023/04/19 08:18:55;;;;;;;20.73;12.90;;;;;;;;;;5112114;28;20024;-64
2023/04/19 08:21:21;;;;;;;21.17;13.02;;;;;;;;;;5112087;28;20115;-64
2023/04/19 08:23:47;;;;;;;19.15;12.05;;;;;;;;;;5112009;28;20107;-64
2023/04/19 08:26:13;;;;;;;22.27;13.35;;;;;;;;;;5112143;28;20433;-65
2023/04/19 08:28:39;;;;;;;23.65;13.07;;;;;;;;;;5097499;28;20038;-64
2023/04/19 08:31:09;;;;;;;22.05;12.50;;;;;;;;;;5094368;28;20460;-63
2023/04/19 08:33:35;;;;;;;21.40;12.93;;;;;;;;;;5091897;28;20051;-63
2023/04/19 08:36:01;;;;;;;21.40;12.23;;;;;;;;;;5092030;28;20109;-63
2023/04/19 08:38:27;;;;;;;21.38;13.05;;;;;;;;;;5091813;28;20100;-63
2023/04/19 08:40:54;;;;;;;17.75;11.43;;;;;;;;;;5104001;28;20614;-64
2023/04/19 08:43:20;;;;;;;20.30;12.65;;;;;;;;;;5097564;28;20114;-63
2023/04/19 08:45:50;;;;;;;19.83;12.70;;;;;;;;;;5091143;28;20500;-64
2023/04/19 08:48:17;;;;;;;23.40;13.30;;;;;;;;;;5093469;28;20043;-65
2023/04/19 08:50:45;;;;;;;24.15;13.10;;;;;;;;;;5107572;28;20016;-63
2023/04/19 08:53:11;;;;;;;22.92;12.57;;;;;;;;;;5094315;28;20027;-64
2023/04/19 08:55:38;;;;;;;21.55;13.63;;;;;;;;;;5104375;28;20038;-64
2023/04/19 08:58:04;;;;;;;23.75;13.32;;;;;;;;;;5097826;28;20020;-64
2023/04/19 09:00:32;;;;;;;21.92;12.85;;;;;;;;;;5091240;28;20055;-64
2023/04/19 09:02:58;;;;;;;21.15;12.18;;;;;;;;;;5094418;28;20039;-64
2023/04/19 09:05:24;;;;;;;21.90;12.30;;;;;;;;;;5090900;28;20028;-63
2023/04/19 09:07:51;;;;;;;24.85;13.48;;;;;;;;;;5091952;28;20020;-63
2023/04/19 09:10:18;;;;;;;19.17;12.82;;;;;;;;;;5098200;28;20015;-63
2023/04/19 09:12:59;;;;;;;21.83;13.15;;;;;;;;;;5115915;28;20024;-62
2023/04/19 09:15:36;;;;;;;18.27;12.15;;;;;;;;;;5122610;27;20067;-63
2023/04/19 09:18:07;;;;;;;21.55;11.77;;;;;;;;;;5100227;28;20028;-62
2023/04/19 09:20:40;;;;;;;19.13;11.85;;;;;;;;;;5095028;28;20020;-62
2023/04/19 09:23:07;;;;;;;19.08;11.63;;;;;;;;;;5095066;28;20032;-67
2023/04/19 09:25:34;;;;;;;23.30;13.02;;;;;;;;;;5098243;28;20052;-67
2023/04/19 09:28:10;;;;;;;22.75;12.80;;;;;;;;;;5095126;28;20419;-67
2023/04/19 09:30:37;;;;;;;16.67;11.02;;;;;;;;;;5112953;27;20034;-67
2023/04/19 09:33:03;;;;;;;19.92;11.52;;;;;;;;;;5109844;28;20084;-66
2023/04/19 09:35:48;;;;;;;15.90;10.20;;;;;;;;;;5115172;28;20080;-67
2023/04/19 09:38:15;;;;;;;17.92;10.00;;;;;;;;;;5115094;28;20035;-65
2023/04/19 09:40:41;;;;;;;17.35;9.73;;;;;;;;;;5115252;28;20563;-65
2023/04/19 09:43:07;;;;;;;16.23;10.50;;;;;;;;;;5114854;28;20123;-68
2023/04/19 09:45:46;;;;;;;18.30;11.25;;;;;;;;;;5099927;28;20468;-68
2023/04/19 09:48:13;;;;;;;18.20;10.77;;;;;;;;;;5094300;28;20036;-68
2023/04/19 09:50:59;;;;;;;20.10;10.75;;;;;;;;;;5111837;27;20107;-67
2023/04/19 09:53:26;;;;;;;14.07;8.98;;;;;;;;;;5104987;28;20456;-67
2023/04/19 09:55:52;;;;;;;17.08;10.00;;;;;;;;;;5094148;28;20035;-68
2023/04/19 09:58:19;;;;;;;15.30;9.60;;;;;;;;;;5094230;28;20035;-68
2023/04/19 10:00:49;;;;;;;13.30;8.82;;;;;;;;;;5097825;28;20072;-68
2023/04/19 10:03:15;;;;;;;13.27;9.05;;;;;;;;;;5093899;28;20075;-66
2023/04/19 10:05:42;;;;;;;12.98;8.05;;;;;;;;;;5094442;28;20073;-71
2023/04/19 10:08:09;;;;;;;13.00;8.88;;;;;;;;;;5112655;28;20023;-71
2023/04/19 10:10:35;;;;;;;13.50;9.02;;;;;;;;;;5114273;28;20031;-69
2023/04/19 10:13:06;;;;;;;13.93;8.75;;;;;;;;;;5114585;28;20404;-71
2023/04/19 10:15:35;;;;;;;13.40;8.83;;;;;;;;;;5100792;28;20032;-71
2023/04/19 10:18:02;;;;;;;12.77;9.02;;;;;;;;;;5098921;28;20271;-71
2023/04/19 10:20:48;;;;;;;12.73;7.82;;;;;;;;;;5097749;28;20177;-72
2023/04/19 10:23:15;;;;;;;15.98;8.75;;;;;;;;;;5098690;28;20233;-75
2023/04/19 10:25:45;;;;;;;13.07;9.77;;;;;;;;;;5093522;28;20337;-71
2023/04/19 10:28:11;;;;;;;16.20;9.63;;;;;;;;;;5097529;28;20114;-70
2023/04/19 10:30:51;;;;;;;14.77;8.90;;;;;;;;;;5094916;28;20121;-70
2023/04/19 10:33:24;;;;;;;14.57;9.90;;;;;;;;;;5093688;28;20058;-70
2023/04/19 10:35:51;;;;;;;13.98;8.65;;;;;;;;;;5105149;28;20020;-69
2023/04/19 10:38:20;;;;;;;12.90;8.18;;;;;;;;;;5093807;28;20498;-70
2023/04/19 10:40:55;;;;;;;12.27;8.13;;;;;;;;;;5093623;28;20032;-72
2023/04/19 10:43:21;;;;;;;11.60;7.50;;;;;;;;;;5093604;28;20110;-77
2023/04/19 10:45:47;;;;;;;10.40;7.28;;;;;;;;;;5096120;28;20039;-72
2023/04/19 10:48:32;;;;;;;13.77;8.32;;;;;;;;;;5096001;28;20067;-72
2023/04/19 10:51:02;;;;;;;13.65;8.40;;;;;;;;;;5102169;28;20085;-72
2023/04/19 10:53:42;;;;;;;10.35;7.10;;;;;;;;;;5095915;28;20036;-73
2023/04/19 10:56:09;;;;;;;11.55;6.97;;;;;;;;;;5092930;28;20064;-74
2023/04/19 10:58:53;;;;;;;12.35;7.15;;;;;;;;;;5093308;28;20043;-73
2023/04/19 11:01:36;;;;;;;9.60;5.68;;;;;;;;;;5098612;28;20396;-78
2023/04/19 11:04:03;;;;;;;10.98;6.65;;;;;;;;;;5103568;28;20078;-75
2023/04/19 11:06:29;;;;;;;9.18;5.88;;;;;;;;;;5111251;28;20016;-75
2023/04/19 11:08:56;;;;;;;10.25;5.75;;;;;;;;;;5111612;28;20024;-78
2023/04/19 11:11:24;;;;;;;8.20;6.20;;;;;;;;;;5110155;28;20027;-74
2023/04/19 11:13:50;;;;;;;8.57;5.05;;;;;;;;;;5104070;28;20028;-74
2023/04/19 11:16:16;;;;;;;8.70;5.82;;;;;;;;;;5104488;28;20020;-77
2023/04/19 11:18:43;;;;;;;11.63;6.53;;;;;;;;;;5107569;28;20027;-76
2023/04/19 11:21:13;;;;;;;11.45;7.15;;;;;;;;;;5101055;28;20038;-78
2023/04/19 11:23:39;;;;;;;11.80;7.32;;;;;;;;;;5110925;28;20130;-76
2023/04/19 11:26:06;;;;;;;8.32;6.72;;;;;;;;;;5111880;28;20086;-75
2023/04/19 11:28:33;;;;;;;9.48;5.80;;;;;;;;;;5102543;28;20027;-74
2023/04/19 11:30:59;;;;;;;8.60;5.80;;;;;;;;;;5112011;28;20016;-74
2023/04/19 11:33:27;;;;;;;10.20;6.88;;;;;;;;;;5100627;28;20084;-73
2023/04/19 11:35:53;;;;;;;10.07;6.35;;;;;;;;;;5095904;28;20093;-73
2023/04/19 11:38:19;;;;;;;8.52;6.28;;;;;;;;;;5112567;28;20019;-73
2023/04/19 11:40:45;;;;;;;9.82;7.72;;;;;;;;;;5112724;28;20039;-71
2023/04/19 11:43:11;;;;;;;14.90;7.70;;;;;;;;;;5109640;28;20036;-72
2023/04/19 11:45:38;;;;;;;9.90;8.25;;;;;;;;;;5108273;28;20019;-71
2023/04/19 11:48:04;;;;;;;14.30;8.52;;;;;;;;;;5112507;28;20027;-72
2023/04/19 11:50:32;;;;;;;15.50;9.15;;;;;;;;;;5115729;27;20035;-72
2023/04/19 11:52:58;;;;;;;12.77;9.45;;;;;;;;;;5122387;27;20076;-72
2023/04/19 11:55:25;;;;;;;13.57;9.52;;;;;;;;;;5104417;28;20036;-73
2023/04/19 11:57:51;;;;;;;14.25;9.90;;;;;;;;;;5110056;28;20047;-70
2023/04/19 12:00:26;;;;;;;10.55;8.30;;;;;;;;;;5107274;28;20095;-77
2023/04/19 12:02:52;;;;;;;10.95;7.63;;;;;;;;;;5101477;28;20106;-74
2023/04/19 12:05:19;;;;;;;10.27;7.97;;;;;;;;;;5098809;28;20032;-76
2023/04/19 12:08:04;;;;;;;10.70;7.20;;;;;;;;;;5105501;28;20020;-74
2023/04/19 12:10:31;;;;;;;10.05;6.53;;;;;;;;;;5092282;28;20024;-72
2023/04/19 12:12:57;;;;;;;9.75;7.22;;;;;;;;;;5092022;28;20036;-72
2023/04/19 12:15:23;;;;;;;10.45;6.65;;;;;;;;;;5097880;28;20032;-68
2023/04/19 12:18:00;;;;;;;11.43;8.02;;;;;;;;;;5094555;28;20032;-67
2023/04/19 12:20:33;;;;;;;9.88;7.85;;;;;;;;;;5092031;28;20028;-67
2023/04/19 12:22:59;;;;;;;11.20;8.27;;;;;;;;;;5107146;28;20502;-69
2023/04/19 12:25:32;;;;;;;12.07;7.97;;;;;;;;;;5091950;28;20122;-68
2023/04/19 12:27:58;;;;;;;13.43;7.60;;;;;;;;;;5091231;28;20035;-69
2023/04/19 12:30:25;;;;;;;11.52;7.95;;;;;;;;;;5103013;28;20027;-68
2023/04/19 12:32:54;;;;;;;12.77;7.88;;;;;;;;;;5112136;28;20015;-68
2023/04/19 12:35:20;;;;;;;9.05;7.80;;;;;;;;;;5111912;28;20024;-69
2023/04/19 12:37:46;;;;;;;8.07;6.72;;;;;;;;;;5111882;28;20429;-68
2023/04/19 12:40:13;;;;;;;9.55;6.82;;;;;;;;;;5105846;28;20473;-68
2023/04/19 12:42:39;;;;;;;11.38;7.30;;;;;;;;;;5091067;28;20038;-69
2023/04/19 12:45:05;;;;;;;8.55;6.35;;;;;;;;;;5090417;28;20122;-69
2023/04/19 12:47:31;;;;;;;9.88;6.93;;;;;;;;;;5091257;28;20093;-68
2023/04/19 12:49:57;;;;;;;12.73;8.68;;;;;;;;;;5091331;28;20597;-67
2023/04/19 12:52:23;;;;;;;12.55;9.00;;;;;;;;;;5091516;28;20028;-69
2023/04/19 12:54:49;;;;;;;11.23;9.88;;;;;;;;;;5091395;28;20027;-69
2023/04/19 12:57:16;;;;;;;13.10;10.05;;;;;;;;;;5107958;28;20028;-69
2023/04/19 12:59:42;;;;;;;12.45;10.43;;;;;;;;;;5102265;28;20024;-68
2023/04/19 13:02:08;;;;;;;12.38;10.55;;;;;;;;;;5091253;28;20020;-69
2023/04/19 13:04:34;;;;;;;11.90;10.57;;;;;;;;;;5090644;28;20031;-72
2023/04/19 13:07:00;;;;;;;14.25;11.15;;;;;;;;;;5091139;28;20102;-69
2023/04/19 13:09:27;;;;;;;12.80;11.27;;;;;;;;;;5097653;28;20024;-70
2023/04/19 13:11:56;;;;;;;14.15;11.77;;;;;;;;;;5091140;28;20024;-71
2023/04/19 13:14:22;;;;;;;15.95;11.90;;;;;;;;;;5097080;28;20024;-70
2023/04/19 13:16:48;;;;;;;14.00;12.57;;;;;;;;;;5111458;28;20601;-70
2023/04/19 13:19:14;;;;;;;13.43;12.02;;;;;;;;;;5100494;28;20039;-69
2023/04/19 13:21:41;;;;;;;15.98;12.88;;;;;;;;;;5091229;28;20103;-68
2023/04/19 13:24:07;;;;;;;17.38;11.73;;;;;;;;;;5090510;28;20036;-71
2023/04/19 13:26:33;;;;;;;13.70;12.07;;;;;;;;;;5091004;28;20016;-70
2023/04/19 13:29:00;;;;;;;13.07;11.60;;;;;;;;;;5091037;28;20027;-70
2023/04/19 13:31:26;;;;;;;13.32;11.80;;;;;;;;;;5097648;28;20033;-70
2023/04/19 13:33:53;;;;;;;14.40;11.38;;;;;;;;;;5094957;28;20024;-69
2023/04/19 13:36:19;;;;;;;14.63;12.18;;;;;;;;;;5092369;28;20020;-72
2023/04/19 13:38:45;;;;;;;16.83;11.57;;;;;;;;;;5090737;28;20028;-70
2023/04/19 13:41:11;;;;;;;15.32;12.68;;;;;;;;;;5098805;28;20541;-69
2023/04/19 13:43:38;;;;;;;14.73;11.55;;;;;;;;;;5111326;28;20063;-69
2023/04/19 13:46:04;;;;;;;15.70;12.25;;;;;;;;;;5111197;28;20031;-69
2023/04/19 13:48:30;;;;;;;15.95;12.05;;;;;;;;;;5111036;28;20081;-70
2023/04/19 13:50:57;;;;;;;15.40;11.77;;;;;;;;;;5109896;28;20102;-71
2023/04/19 13:53:23;;;;;;;15.90;11.52;;;;;;;;;;5090883;28;20050;-69
2023/04/19 13:55:50;;;;;;;17.85;12.80;;;;;;;;;;5090725;28;20145;-68
2023/04/19 13:58:16;;;;;;;17.67;12.50;;;;;;;;;;5092647;28;20500;-69
2023/04/19 14:00:42;;;;;;;15.98;11.05;;;;;;;;;;5094395;28;20020;-68
2023/04/19 14:03:08;;;;;;;16.45;12.02;;;;;;;;;;5094324;28;20043;-69
2023/04/19 14:05:34;;;;;;;14.98;11.35;;;;;;;;;;5094553;28;20016;-68
2023/04/19 14:08:00;;;;;;;14.40;10.63;;;;;;;;;;5103884;28;20032;-68
2023/04/19 14:10:26;;;;;;;17.00;11.57;;;;;;;;;;5114585;28;20019;-68
2023/04/19 14:12:53;;;;;;;15.35;10.77;;;;;;;;;;5114754;28;20100;-68
2023/04/19 14:15:19;;;;;;;14.25;10.30;;;;;;;;;;5114648;28;20055;-69
2023/04/19 14:17:45;;;;;;;14.48;9.68;;;;;;;;;;5113380;28;20023;-69
2023/04/19 14:20:12;;;;;;;12.75;9.63;;;;;;;;;;5114491;28;20026;-69